首页
METAR-TAF:

METAR-TAF

机场 :

努美阿國際機場, 新喀里多尼亚

纬度: 22-01S, 经度: 166-13E, 海拔: 16米

当前天气观测

该预报发布于22分钟前的20:30 UTC
风速3节,风向多变
温度 15°C
湿度 88%
气压 1016 hPa
能见度10公里或以上
多云层高于3300英尺
多云层高于4100英尺
多云层高于5000英尺

METAR: NWWW 222030Z AUTO VRB03KT 9999 BKN033 BKN041 BKN050 15/13 Q1016 TEMPO SHRA BKN012

时间: 07:52 (20:52 UTC)

预报

该预报发布于1小时和11分钟前的19:41 UTC
预报有效从22日的 19点(UTC)到 23日的 18点(UTC)
风速2节,风向多变
能见度10公里或以上
少量云层高于4500英尺
散云层高于6000英尺
成为
从 22日的 20点(UTC)到 22日的 22点(UTC)
风速12节,风向西南,有时为22节阵风
几率 30% :
短暂存在
从 22日的 20点(UTC)到 23日的 09点(UTC)
多云层高于1200英尺
阵雨

TAF: NWWW 221941Z 2219/2318 VRB02KT 9999 FEW045 SCT060 BECMG 2220/2222 23012G22KT PROB30 TEMPO 2220/2309 SHRA BKN012

超过4000个机场的气象观测和天气预报(METAR&TAF报告)。

可查询的气象台以黄色和红色小点在地图上表示。

将鼠标移到小点上方,可查看气象台名称。

然后点击查看天气观测和预报。

如需切换地图:点击带黑十字的绿色按钮放大地图;点击带横线的绿色按钮缩小地图;或者点击绿色箭头查看邻近地区的地图。


METAR-TAF: